Time;durP1;ratioP1;P1;durP2;ratioP2;P2;SDS_P1;SDS_P2;PMS_P1;PMS_P2;Temp;Humidity;BMP_temperature;BMP_pressure;BME280_temperature;BME280_humidity;BME280_pressure;Samples;Min_cycle;Max_cycle;Signal;HPM_P1;HPM_P2
2023/09/01 00:00:16;;;;;;;11.73;8.57;;;;;;;;;;2611686;54;20452;-74
2023/09/01 00:02:42;;;;;;;15.33;8.30;;;;;;;;;;2610611;54;20515;-74
2023/09/01 00:05:08;;;;;;;25.87;9.20;;;;;;;;;;2611604;54;21013;-74
2023/09/01 00:07:35;;;;;;;13.80;8.30;;;;;;;;;;2610473;46;20428;-74
2023/09/01 00:10:01;;;;;;;14.23;8.77;;;;;;;;;;2611087;54;21087;-74
2023/09/01 00:12:27;;;;;;;11.90;8.70;;;;;;;;;;2609500;39;20491;-73
2023/09/01 00:14:54;;;;;;;15.97;10.30;;;;;;;;;;2608710;54;20410;-73
2023/09/01 00:17:21;;;;;;;13.90;8.60;;;;;;;;;;2607517;47;20437;-73
2023/09/01 00:19:47;;;;;;;16.63;7.97;;;;;;;;;;2607400;47;20450;-73
2023/09/01 00:22:13;;;;;;;15.50;8.77;;;;;;;;;;2608950;54;20420;-73
2023/09/01 00:24:39;;;;;;;16.63;8.70;;;;;;;;;;2608166;54;20984;-74
2023/09/01 00:27:05;;;;;;;12.83;8.63;;;;;;;;;;2608753;47;20510;-74
2023/09/01 00:29:34;;;;;;;13.33;8.73;;;;;;;;;;2609223;54;20407;-73
2023/09/01 00:32:03;;;;;;;15.93;8.80;;;;;;;;;;2608184;47;21450;-73
2023/09/01 00:34:30;;;;;;;13.27;8.93;;;;;;;;;;2607705;54;20436;-73
2023/09/01 00:36:57;;;;;;;15.00;9.50;;;;;;;;;;2608223;47;20527;-73
2023/09/01 00:39:23;;;;;;;13.00;9.17;;;;;;;;;;2610562;54;20420;-73
2023/09/01 00:41:49;;;;;;;13.60;10.57;;;;;;;;;;2610291;46;20446;-73
2023/09/01 00:44:16;;;;;;;15.73;10.03;;;;;;;;;;2608786;54;20412;-73
2023/09/01 00:46:43;;;;;;;13.30;8.80;;;;;;;;;;2607802;47;20938;-73
2023/09/01 00:49:10;;;;;;;15.40;9.00;;;;;;;;;;2608839;54;20403;-73
2023/09/01 00:51:37;;;;;;;12.40;8.90;;;;;;;;;;2609050;54;20531;-73
2023/09/01 00:54:03;;;;;;;10.33;8.50;;;;;;;;;;2610448;47;20420;-74
2023/09/01 00:56:29;;;;;;;15.30;8.73;;;;;;;;;;2610583;47;20522;-73
2023/09/01 00:58:56;;;;;;;14.47;8.30;;;;;;;;;;2611148;31;20859;-73
2023/09/01 01:01:22;;;;;;;15.43;7.53;;;;;;;;;;2610883;54;20420;-72
2023/09/01 01:03:51;;;;;;;13.67;7.90;;;;;;;;;;2611354;54;20430;-73
2023/09/01 01:06:35;;;;;;;12.70;9.03;;;;;;;;;;2609197;54;20414;-73
2023/09/01 01:09:08;;;;;;;11.13;8.30;;;;;;;;;;2608650;54;20419;-73
2023/09/01 01:11:34;;;;;;;13.00;8.63;;;;;;;;;;2607979;54;20445;-73
2023/09/01 01:14:04;;;;;;;14.67;8.47;;;;;;;;;;2608716;54;20439;-74
2023/09/01 01:16:31;;;;;;;15.80;9.00;;;;;;;;;;2608425;54;20466;-73
2023/09/01 01:19:01;;;;;;;15.00;8.93;;;;;;;;;;2607979;54;20423;-73
2023/09/01 01:21:27;;;;;;;11.30;8.13;;;;;;;;;;2607728;47;21201;-73
2023/09/01 01:23:54;;;;;;;14.73;7.93;;;;;;;;;;2607693;47;20440;-73
2023/09/01 01:26:23;;;;;;;16.00;7.97;;;;;;;;;;2608228;46;20498;-73
2023/09/01 01:28:49;;;;;;;15.20;8.93;;;;;;;;;;2609160;39;21084;-73
2023/09/01 01:31:15;;;;;;;12.00;8.50;;;;;;;;;;2607841;54;20442;-73
2023/09/01 01:33:56;;;;;;;11.20;7.93;;;;;;;;;;2607781;47;21177;-73
2023/09/01 01:36:41;;;;;;;11.27;7.93;;;;;;;;;;2608645;54;20462;-73
2023/09/01 01:39:14;;;;;;;10.27;8.13;;;;;;;;;;2608736;54;20399;-73
2023/09/01 01:41:42;;;;;;;14.90;9.03;;;;;;;;;;2608443;54;21689;-73
2023/09/01 01:44:10;;;;;;;11.47;7.60;;;;;;;;;;2609744;54;20407;-73
2023/09/01 01:46:36;;;;;;;12.80;7.10;;;;;;;;;;2607319;54;20383;-73
2023/09/01 01:49:08;;;;;;;14.10;7.37;;;;;;;;;;2608514;54;20412;-74
2023/09/01 01:51:34;;;;;;;14.97;8.30;;;;;;;;;;2607941;54;20387;-73
2023/09/01 01:54:00;;;;;;;14.60;8.20;;;;;;;;;;2607920;54;20977;-74
2023/09/01 01:56:26;;;;;;;10.23;7.57;;;;;;;;;;2607336;54;20423;-73
2023/09/01 01:58:52;;;;;;;13.00;7.20;;;;;;;;;;2607371;47;20442;-73
2023/09/01 02:01:18;;;;;;;10.70;7.03;;;;;;;;;;2608217;54;20406;-73
2023/09/01 02:03:46;;;;;;;9.23;7.00;;;;;;;;;;2608056;54;21046;-73
2023/09/01 02:06:12;;;;;;;11.40;6.70;;;;;;;;;;2606954;47;20416;-73
2023/09/01 02:08:38;;;;;;;13.93;8.13;;;;;;;;;;2608319;39;20917;-75
2023/09/01 02:11:04;;;;;;;9.40;7.03;;;;;;;;;;2607714;46;20467;-73
2023/09/01 02:13:31;;;;;;;13.33;7.30;;;;;;;;;;2608359;54;20383;-73
2023/09/01 02:15:57;;;;;;;13.50;7.40;;;;;;;;;;2607802;54;20383;-73
2023/09/01 02:18:24;;;;;;;10.90;7.17;;;;;;;;;;2607205;54;20950;-73
2023/09/01 02:20:51;;;;;;;14.40;6.60;;;;;;;;;;2607980;54;20395;-73
2023/09/01 02:23:17;;;;;;;9.40;7.00;;;;;;;;;;2607505;54;20996;-73
2023/09/01 02:25:46;;;;;;;11.70;6.70;;;;;;;;;;2607277;54;20400;-74
2023/09/01 02:28:12;;;;;;;10.53;6.50;;;;;;;;;;2609152;39;20828;-73
2023/09/01 02:30:39;;;;;;;18.20;7.30;;;;;;;;;;2611148;54;20408;-73
2023/09/01 02:33:05;;;;;;;11.10;7.47;;;;;;;;;;2610056;54;20427;-74
2023/09/01 02:35:32;;;;;;;11.80;7.57;;;;;;;;;;2608587;54;20411;-73
2023/09/01 02:37:58;;;;;;;11.70;7.97;;;;;;;;;;2609100;54;20938;-73
2023/09/01 02:40:26;;;;;;;10.50;8.00;;;;;;;;;;2608312;54;20390;-73
2023/09/01 02:42:52;;;;;;;11.93;7.63;;;;;;;;;;2608815;54;22098;-72
2023/09/01 02:45:18;;;;;;;10.03;6.93;;;;;;;;;;2609800;54;20400;-73
2023/09/01 02:47:45;;;;;;;7.80;6.93;;;;;;;;;;2608991;54;20399;-74
2023/09/01 02:50:11;;;;;;;8.90;6.63;;;;;;;;;;2608984;54;21011;-72
2023/09/01 02:52:37;;;;;;;12.67;7.60;;;;;;;;;;2612573;54;20434;-73
2023/09/01 02:55:06;;;;;;;8.57;7.67;;;;;;;;;;2613495;54;20420;-73
2023/09/01 02:57:32;;;;;;;10.40;7.30;;;;;;;;;;2613159;54;20976;-73
2023/09/01 02:59:58;;;;;;;10.53;7.60;;;;;;;;;;2613731;54;20413;-73
2023/09/01 03:02:26;;;;;;;11.53;6.63;;;;;;;;;;2612694;54;20954;-73
2023/09/01 03:04:53;;;;;;;12.10;7.50;;;;;;;;;;2614338;39;20865;-73
2023/09/01 03:07:19;;;;;;;10.23;6.90;;;;;;;;;;2613908;54;20426;-73
2023/09/01 03:09:45;;;;;;;12.67;6.40;;;;;;;;;;2613626;54;20451;-74
2023/09/01 03:12:12;;;;;;;10.80;7.87;;;;;;;;;;2614085;54;20443;-73
2023/09/01 03:14:38;;;;;;;13.23;7.70;;;;;;;;;;2613671;39;20953;-73
2023/09/01 03:17:05;;;;;;;12.03;6.60;;;;;;;;;;2614589;54;20404;-74
2023/09/01 03:19:31;;;;;;;12.73;6.70;;;;;;;;;;2614705;54;20416;-74
2023/09/01 03:21:58;;;;;;;11.60;6.53;;;;;;;;;;2614007;54;20435;-74
2023/09/01 03:24:25;;;;;;;11.87;7.77;;;;;;;;;;2613658;46;20426;-73
2023/09/01 03:26:53;;;;;;;10.10;6.83;;;;;;;;;;2613287;54;20420;-74
2023/09/01 03:29:19;;;;;;;10.43;7.30;;;;;;;;;;2614753;54;20423;-73
2023/09/01 03:31:45;;;;;;;15.13;8.30;;;;;;;;;;2611895;46;20412;-74
2023/09/01 03:34:11;;;;;;;11.83;7.23;;;;;;;;;;2613132;39;20776;-74
2023/09/01 03:36:37;;;;;;;13.40;8.57;;;;;;;;;;2612291;54;20415;-75
2023/09/01 03:39:07;;;;;;;12.17;8.20;;;;;;;;;;2612870;54;20546;-74
2023/09/01 03:41:36;;;;;;;12.30;8.10;;;;;;;;;;2611382;50;20427;-73
2023/09/01 03:44:02;;;;;;;12.73;9.03;;;;;;;;;;2612174;54;20395;-73
2023/09/01 03:46:28;;;;;;;14.80;8.83;;;;;;;;;;2611775;54;21071;-74
2023/09/01 03:48:56;;;;;;;11.03;8.37;;;;;;;;;;2611526;46;20953;-73
2023/09/01 03:51:23;;;;;;;10.77;8.40;;;;;;;;;;2612145;54;20424;-73
2023/09/01 03:53:49;;;;;;;15.83;8.97;;;;;;;;;;2611964;54;20435;-74
2023/09/01 03:56:18;;;;;;;12.97;8.93;;;;;;;;;;2611947;54;20439;-73
2023/09/01 03:58:45;;;;;;;14.50;8.17;;;;;;;;;;2612349;54;20483;-73
2023/09/01 04:01:12;;;;;;;10.90;7.70;;;;;;;;;;2612050;54;20403;-73
2023/09/01 04:03:38;;;;;;;11.87;8.40;;;;;;;;;;2608965;46;20462;-73
2023/09/01 04:06:05;;;;;;;9.80;7.53;;;;;;;;;;2608253;54;20495;-72
2023/09/01 04:08:32;;;;;;;11.87;7.40;;;;;;;;;;2608516;54;20491;-73
2023/09/01 04:10:58;;;;;;;11.30;7.70;;;;;;;;;;2607798;54;20483;-72
2023/09/01 04:13:24;;;;;;;10.77;6.93;;;;;;;;;;2608302;54;20423;-72
2023/09/01 04:15:55;;;;;;;7.23;5.40;;;;;;;;;;2608038;47;20512;-73
2023/09/01 04:18:21;;;;;;;11.60;7.70;;;;;;;;;;2608366;54;20404;-73
2023/09/01 04:20:48;;;;;;;11.27;7.70;;;;;;;;;;2607818;47;20439;-73
2023/09/01 04:23:15;;;;;;;9.53;6.40;;;;;;;;;;2607725;54;20455;-72
2023/09/01 04:25:41;;;;;;;11.47;7.97;;;;;;;;;;2608373;54;20416;-73
2023/09/01 04:28:07;;;;;;;11.40;6.93;;;;;;;;;;2609927;54;20426;-73
2023/09/01 04:30:33;;;;;;;11.13;7.30;;;;;;;;;;2610819;47;20420;-73
2023/09/01 04:32:59;;;;;;;10.10;6.67;;;;;;;;;;2611493;54;20423;-72
2023/09/01 04:35:25;;;;;;;12.40;6.70;;;;;;;;;;2608222;54;20434;-72
2023/09/01 04:37:51;;;;;;;11.53;7.13;;;;;;;;;;2608976;54;20422;-73
2023/09/01 04:40:17;;;;;;;11.10;7.30;;;;;;;;;;2607494;54;20409;-73
2023/09/01 04:42:43;;;;;;;17.13;7.43;;;;;;;;;;2607506;54;20411;-73
2023/09/01 04:45:09;;;;;;;13.23;7.70;;;;;;;;;;2610008;54;20428;-72
2023/09/01 04:47:36;;;;;;;9.23;6.60;;;;;;;;;;2611703;54;20399;-73
2023/09/01 04:50:03;;;;;;;14.30;7.37;;;;;;;;;;2611847;54;20424;-72
2023/09/01 04:52:29;;;;;;;13.53;6.60;;;;;;;;;;2609870;54;20426;-72
2023/09/01 04:54:56;;;;;;;12.10;6.70;;;;;;;;;;2610406;54;20399;-72
2023/09/01 04:57:23;;;;;;;8.87;6.77;;;;;;;;;;2610765;54;20431;-71
2023/09/01 04:59:50;;;;;;;9.23;6.80;;;;;;;;;;2611204;54;20502;-72
2023/09/01 05:02:17;;;;;;;9.87;7.33;;;;;;;;;;2611635;39;20745;-73
2023/09/01 05:04:43;;;;;;;10.30;7.67;;;;;;;;;;2612083;39;20964;-73
2023/09/01 05:07:09;;;;;;;14.27;8.03;;;;;;;;;;2608957;54;20431;-73
2023/09/01 05:09:35;;;;;;;11.73;8.33;;;;;;;;;;2607227;54;20400;-74
2023/09/01 05:12:01;;;;;;;11.70;7.33;;;;;;;;;;2608197;54;20427;-72
2023/09/01 05:14:27;;;;;;;11.47;6.73;;;;;;;;;;2608806;54;20406;-73
2023/09/01 05:16:53;;;;;;;10.60;7.53;;;;;;;;;;2608742;54;20482;-72
2023/09/01 05:19:19;;;;;;;8.73;7.27;;;;;;;;;;2608711;54;20423;-73
2023/09/01 05:21:45;;;;;;;11.50;7.40;;;;;;;;;;2607921;54;20423;-72
2023/09/01 05:24:11;;;;;;;10.40;7.60;;;;;;;;;;2608628;54;21008;-76
2023/09/01 05:26:37;;;;;;;11.13;7.53;;;;;;;;;;2607845;54;20419;-77
2023/09/01 05:29:03;;;;;;;10.17;7.40;;;;;;;;;;2608670;54;20407;-72
2023/09/01 05:31:29;;;;;;;9.17;7.23;;;;;;;;;;2607026;54;20498;-72
2023/09/01 05:33:55;;;;;;;13.00;7.47;;;;;;;;;;2607772;54;20399;-73
2023/09/01 05:36:21;;;;;;;9.97;6.73;;;;;;;;;;2609849;54;20411;-73
2023/09/01 05:38:47;;;;;;;12.63;6.90;;;;;;;;;;2611467;54;20432;-73
2023/09/01 05:41:14;;;;;;;11.07;7.50;;;;;;;;;;2609966;54;20435;-72
2023/09/01 05:43:41;;;;;;;8.97;6.20;;;;;;;;;;2606062;47;20673;-73
2023/09/01 05:46:07;;;;;;;8.10;7.30;;;;;;;;;;2608775;39;20860;-72
2023/09/01 05:48:34;;;;;;;14.13;7.10;;;;;;;;;;2610024;54;20404;-72
2023/09/01 05:51:01;;;;;;;19.00;8.57;;;;;;;;;;2612369;54;20406;-71
2023/09/01 05:53:27;;;;;;;11.70;8.90;;;;;;;;;;2610461;46;20407;-72
2023/09/01 05:55:53;;;;;;;11.47;8.30;;;;;;;;;;2611573;54;21021;-72
2023/09/01 05:58:19;;;;;;;15.37;10.47;;;;;;;;;;2612489;54;20527;-72
2023/09/01 06:00:46;;;;;;;16.60;10.07;;;;;;;;;;2609827;54;20432;-72
2023/09/01 06:03:12;;;;;;;12.17;8.33;;;;;;;;;;2611235;54;21017;-72
2023/09/01 06:05:38;;;;;;;12.07;8.73;;;;;;;;;;2609306;54;20422;-72
2023/09/01 06:08:04;;;;;;;13.57;8.13;;;;;;;;;;2613785;31;20985;-73
2023/09/01 06:10:30;;;;;;;15.10;8.70;;;;;;;;;;2613846;39;21026;-73
2023/09/01 06:12:56;;;;;;;13.37;9.40;;;;;;;;;;2612252;54;20403;-73
2023/09/01 06:15:22;;;;;;;10.07;6.97;;;;;;;;;;2612637;47;20439;-73
2023/09/01 06:17:49;;;;;;;11.10;8.70;;;;;;;;;;2612972;54;20420;-73
2023/09/01 06:20:16;;;;;;;15.10;7.93;;;;;;;;;;2613941;54;20424;-73
2023/09/01 06:22:42;;;;;;;11.17;8.60;;;;;;;;;;2611227;54;20455;-72
2023/09/01 06:25:08;;;;;;;10.33;9.30;;;;;;;;;;2613004;54;20423;-73
2023/09/01 06:27:37;;;;;;;9.43;8.13;;;;;;;;;;2613290;54;20438;-72
2023/09/01 06:30:04;;;;;;;11.63;7.70;;;;;;;;;;2613152;54;20534;-72
2023/09/01 06:32:30;;;;;;;9.73;7.77;;;;;;;;;;2613258;54;21245;-73
2023/09/01 06:34:56;;;;;;;10.83;8.23;;;;;;;;;;2610428;54;20471;-72
2023/09/01 06:37:22;;;;;;;10.70;8.17;;;;;;;;;;2604727;54;21073;-73
2023/09/01 06:39:48;;;;;;;13.80;8.60;;;;;;;;;;2610749;54;20435;-73
2023/09/01 06:42:14;;;;;;;9.60;8.57;;;;;;;;;;2612220;54;20408;-73
2023/09/01 06:44:40;;;;;;;10.10;7.00;;;;;;;;;;2613075;54;20432;-73
2023/09/01 06:47:07;;;;;;;10.50;7.10;;;;;;;;;;2612623;39;20614;-73
2023/09/01 06:49:33;;;;;;;15.83;7.57;;;;;;;;;;2612829;54;20463;-73
2023/09/01 06:52:01;;;;;;;8.50;7.03;;;;;;;;;;2613094;54;20423;-73
2023/09/01 06:54:27;;;;;;;12.83;6.53;;;;;;;;;;2612244;54;20400;-73
2023/09/01 06:56:54;;;;;;;9.13;7.10;;;;;;;;;;2610861;54;20420;-73
2023/09/01 06:59:20;;;;;;;8.57;6.43;;;;;;;;;;2612561;54;20427;-73
2023/09/01 07:01:46;;;;;;;6.70;5.50;;;;;;;;;;2610828;47;20458;-73
2023/09/01 07:04:12;;;;;;;6.57;4.90;;;;;;;;;;2612553;54;20493;-73
2023/09/01 07:06:38;;;;;;;12.30;5.40;;;;;;;;;;2611811;49;20422;-73
2023/09/01 07:09:04;;;;;;;5.27;4.70;;;;;;;;;;2612764;54;21092;-72
2023/09/01 07:11:30;;;;;;;5.93;4.90;;;;;;;;;;2613068;54;20488;-72
2023/09/01 07:13:56;;;;;;;8.33;4.80;;;;;;;;;;2611957;54;20423;-72
2023/09/01 07:16:23;;;;;;;7.40;4.63;;;;;;;;;;2611675;54;20412;-73
2023/09/01 07:18:51;;;;;;;5.33;4.40;;;;;;;;;;2610864;54;20423;-73
2023/09/01 07:21:17;;;;;;;4.87;4.47;;;;;;;;;;2611490;54;20408;-73
2023/09/01 07:23:43;;;;;;;4.47;4.07;;;;;;;;;;2610446;54;20392;-73
2023/09/01 07:26:09;;;;;;;8.00;4.27;;;;;;;;;;2611591;51;20467;-72
2023/09/01 07:28:35;;;;;;;6.33;4.83;;;;;;;;;;2610532;54;20406;-72
2023/09/01 07:31:01;;;;;;;5.33;4.33;;;;;;;;;;2611383;39;20900;-73
2023/09/01 07:33:30;;;;;;;5.83;4.57;;;;;;;;;;2612819;39;20804;-73
2023/09/01 07:35:56;;;;;;;7.63;4.60;;;;;;;;;;2611859;31;20889;-73
2023/09/01 07:38:23;;;;;;;5.00;4.40;;;;;;;;;;2612479;54;20408;-73
2023/09/01 07:40:49;;;;;;;5.20;4.17;;;;;;;;;;2612179;54;20978;-77
2023/09/01 07:43:17;;;;;;;8.33;5.60;;;;;;;;;;2612344;54;20487;-73
2023/09/01 07:45:43;;;;;;;4.50;4.07;;;;;;;;;;2611625;54;20403;-72
2023/09/01 07:48:10;;;;;;;5.43;4.27;;;;;;;;;;2612411;54;20434;-72
2023/09/01 07:50:37;;;;;;;9.60;4.77;;;;;;;;;;2610806;54;20443;-73
2023/09/01 07:53:04;;;;;;;8.10;4.30;;;;;;;;;;2609285;54;20416;-73
2023/09/01 07:55:30;;;;;;;5.57;4.43;;;;;;;;;;2609097;54;20420;-73
2023/09/01 07:57:56;;;;;;;6.73;4.90;;;;;;;;;;2609492;54;20420;-73
2023/09/01 08:00:22;;;;;;;4.83;4.00;;;;;;;;;;2610708;54;20428;-72
2023/09/01 08:02:49;;;;;;;4.20;3.80;;;;;;;;;;2608920;54;21012;-73
2023/09/01 08:05:15;;;;;;;6.50;3.87;;;;;;;;;;2607576;47;21093;-73
2023/09/01 08:07:41;;;;;;;6.23;4.30;;;;;;;;;;2611427;54;20424;-73
2023/09/01 08:10:10;;;;;;;5.83;4.17;;;;;;;;;;2610515;54;20426;-73
2023/09/01 08:12:36;;;;;;;5.37;4.10;;;;;;;;;;2610749;54;20434;-74
2023/09/01 08:15:02;;;;;;;5.47;4.03;;;;;;;;;;2611788;54;20455;-73
2023/09/01 08:17:28;;;;;;;3.93;3.53;;;;;;;;;;2607807;54;20403;-73
2023/09/01 08:19:54;;;;;;;7.70;4.30;;;;;;;;;;2608593;47;21132;-73
2023/09/01 08:22:20;;;;;;;5.17;4.20;;;;;;;;;;2606176;54;20421;-73
2023/09/01 08:24:46;;;;;;;4.73;4.23;;;;;;;;;;2607106;54;20419;-73
2023/09/01 08:27:12;;;;;;;4.03;3.63;;;;;;;;;;2608795;54;20431;-73
2023/09/01 08:29:38;;;;;;;4.10;3.70;;;;;;;;;;2610246;54;20427;-73
2023/09/01 08:32:05;;;;;;;4.97;4.50;;;;;;;;;;2611290;54;20406;-73
2023/09/01 08:34:32;;;;;;;6.73;4.80;;;;;;;;;;2610091;54;20411;-72
2023/09/01 08:36:58;;;;;;;5.00;4.50;;;;;;;;;;2611329;54;20478;-72
2023/09/01 08:39:24;;;;;;;5.10;4.70;;;;;;;;;;2608612;54;20427;-72
2023/09/01 08:41:52;;;;;;;5.03;4.50;;;;;;;;;;2610103;54;20451;-72
2023/09/01 08:44:23;;;;;;;5.77;3.50;;;;;;;;;;2611778;54;20431;-72
2023/09/01 08:46:50;;;;;;;5.30;4.43;;;;;;;;;;2610029;54;20384;-72
2023/09/01 08:49:17;;;;;;;4.73;4.20;;;;;;;;;;2612312;54;20427;-73
2023/09/01 08:51:44;;;;;;;4.83;4.00;;;;;;;;;;2611466;47;20554;-72
2023/09/01 08:54:10;;;;;;;6.87;5.10;;;;;;;;;;2610575;54;20431;-73
2023/09/01 08:56:37;;;;;;;6.13;4.50;;;;;;;;;;2609447;54;20463;-73
2023/09/01 08:59:03;;;;;;;5.10;4.30;;;;;;;;;;2609902;54;20538;-73
2023/09/01 09:01:30;;;;;;;7.13;4.00;;;;;;;;;;2609740;54;20459;-73
2023/09/01 09:03:58;;;;;;;5.17;4.60;;;;;;;;;;2610700;54;21307;-73
2023/09/01 09:06:31;;;;;;;4.23;3.83;;;;;;;;;;2608895;54;20465;-72
2023/09/01 09:09:14;;;;;;;5.90;3.80;;;;;;;;;;2608179;54;20399;-73
2023/09/01 09:11:54;;;;;;;9.33;3.23;;;;;;;;;;2610542;54;20423;-73
2023/09/01 09:14:20;;;;;;;4.20;3.20;;;;;;;;;;2610785;54;20426;-72
2023/09/01 09:16:53;;;;;;;6.97;3.47;;;;;;;;;;2609971;54;20395;-72
2023/09/01 09:19:20;;;;;;;4.60;3.07;;;;;;;;;;2609598;54;20482;-73
2023/09/01 09:21:46;;;;;;;4.13;3.10;;;;;;;;;;2609933;54;20476;-73
2023/09/01 09:24:13;;;;;;;3.30;2.60;;;;;;;;;;2610267;54;20415;-72
2023/09/01 09:26:39;;;;;;;4.67;3.20;;;;;;;;;;2611065;39;20809;-72
2023/09/01 09:29:11;;;;;;;3.57;2.90;;;;;;;;;;2610955;47;21224;-72
2023/09/01 09:31:39;;;;;;;3.27;2.60;;;;;;;;;;2610460;46;20498;-72
2023/09/01 09:34:18;;;;;;;10.83;3.50;;;;;;;;;;2610325;54;20468;-73
2023/09/01 09:36:45;;;;;;;5.53;3.97;;;;;;;;;;2611306;54;20443;-73
2023/09/01 09:39:27;;;;;;;5.67;4.40;;;;;;;;;;2612534;54;20387;-74
2023/09/01 09:41:59;;;;;;;4.03;3.63;;;;;;;;;;2611668;39;21187;-73
2023/09/01 09:44:33;;;;;;;4.17;3.50;;;;;;;;;;2610362;54;20392;-72
2023/09/01 09:47:00;;;;;;;4.40;3.43;;;;;;;;;;2611025;54;20503;-73
2023/09/01 09:49:27;;;;;;;4.60;3.00;;;;;;;;;;2609773;54;20544;-73
2023/09/01 09:51:54;;;;;;;5.93;2.80;;;;;;;;;;2611973;54;20470;-72
2023/09/01 09:54:21;;;;;;;3.70;2.90;;;;;;;;;;2612538;54;20399;-71
2023/09/01 09:56:48;;;;;;;4.10;2.83;;;;;;;;;;2611670;54;20387;-71
2023/09/01 09:59:16;;;;;;;5.07;3.53;;;;;;;;;;2611538;54;20965;-72
2023/09/01 10:01:46;;;;;;;3.73;2.83;;;;;;;;;;2611204;54;20391;-71
2023/09/01 10:04:12;;;;;;;5.00;3.10;;;;;;;;;;2611412;54;20471;-71
2023/09/01 10:06:39;;;;;;;4.37;3.10;;;;;;;;;;2609601;54;20423;-71
2023/09/01 10:09:06;;;;;;;6.57;2.83;;;;;;;;;;2609918;54;20407;-72
2023/09/01 10:11:32;;;;;;;6.07;4.20;;;;;;;;;;2612310;54;20454;-71
2023/09/01 10:14:00;;;;;;;4.40;4.00;;;;;;;;;;2609976;54;20426;-70
2023/09/01 10:16:26;;;;;;;3.90;3.50;;;;;;;;;;2611911;54;20486;-70
2023/09/01 10:18:53;;;;;;;4.60;4.13;;;;;;;;;;2610597;54;20403;-71
2023/09/01 10:21:20;;;;;;;5.00;3.80;;;;;;;;;;2612727;39;20816;-71
2023/09/01 10:23:46;;;;;;;6.37;4.17;;;;;;;;;;2612434;47;20446;-72
2023/09/01 10:26:14;;;;;;;7.60;3.90;;;;;;;;;;2612194;54;20941;-71
2023/09/01 10:29:00;;;;;;;7.70;4.00;;;;;;;;;;2630103;36;20474;-72
2023/09/01 10:31:26;;;;;;;3.20;2.60;;;;;;;;;;2611895;54;20416;-70
2023/09/01 10:34:05;;;;;;;5.73;3.80;;;;;;;;;;2608874;54;20443;-70
2023/09/01 10:36:31;;;;;;;5.90;3.47;;;;;;;;;;2612080;54;21408;-70
2023/09/01 10:39:03;;;;;;;8.60;2.90;;;;;;;;;;2612308;54;20398;-72
2023/09/01 10:41:46;;;;;;;4.30;2.90;;;;;;;;;;2612301;54;20965;-72
2023/09/01 10:44:12;;;;;;;4.87;3.60;;;;;;;;;;2612562;54;20426;-70
2023/09/01 10:46:38;;;;;;;4.30;3.30;;;;;;;;;;2611143;54;20467;-71
2023/09/01 10:49:07;;;;;;;5.40;2.70;;;;;;;;;;2612390;54;20391;-72
2023/09/01 10:51:43;;;;;;;4.07;2.80;;;;;;;;;;2610733;54;20479;-72
2023/09/01 10:54:15;;;;;;;4.70;2.93;;;;;;;;;;2612162;47;20449;-71
2023/09/01 10:56:54;;;;;;;5.10;2.67;;;;;;;;;;2611948;54;20434;-71
2023/09/01 10:59:27;;;;;;;5.00;2.33;;;;;;;;;;2612407;54;20415;-72
2023/09/01 11:01:53;;;;;;;6.30;2.50;;;;;;;;;;2612586;54;20466;-70
2023/09/01 11:04:24;;;;;;;4.17;2.77;;;;;;;;;;2612781;54;20523;-73
2023/09/01 11:07:08;;;;;;;3.07;1.93;;;;;;;;;;2611784;31;20864;-73
2023/09/01 11:09:34;;;;;;;3.27;2.40;;;;;;;;;;2612775;54;21001;-73
2023/09/01 11:12:00;;;;;;;4.70;2.60;;;;;;;;;;2611955;47;20467;-73
2023/09/01 11:14:26;;;;;;;3.30;2.20;;;;;;;;;;2611866;54;20487;-73
2023/09/01 11:16:52;;;;;;;3.60;2.30;;;;;;;;;;2612625;46;20426;-73
2023/09/01 11:19:18;;;;;;;2.70;1.90;;;;;;;;;;2613212;54;20427;-73
2023/09/01 11:21:46;;;;;;;3.00;2.00;;;;;;;;;;2611289;46;20431;-71
2023/09/01 11:24:12;;;;;;;4.27;2.03;;;;;;;;;;2612638;39;20944;-74
2023/09/01 11:26:39;;;;;;;3.87;2.00;;;;;;;;;;2612727;54;20515;-72
2023/09/01 11:29:11;;;;;;;2.40;1.77;;;;;;;;;;2612230;54;20420;-72
2023/09/01 11:31:40;;;;;;;3.23;2.30;;;;;;;;;;2612405;39;20998;-73
2023/09/01 11:34:06;;;;;;;3.63;1.77;;;;;;;;;;2612700;54;20416;-72
2023/09/01 11:36:33;;;;;;;5.33;1.90;;;;;;;;;;2612458;54;20507;-72
2023/09/01 11:38:59;;;;;;;3.87;2.17;;;;;;;;;;2612206;54;20676;-72
2023/09/01 11:41:26;;;;;;;4.23;2.03;;;;;;;;;;2612387;54;20432;-73
2023/09/01 11:43:54;;;;;;;2.77;1.80;;;;;;;;;;2611265;54;20428;-72
2023/09/01 11:46:31;;;;;;;3.83;1.73;;;;;;;;;;2611773;54;20431;-74
2023/09/01 11:48:57;;;;;;;2.83;1.70;;;;;;;;;;2612528;46;20411;-72
2023/09/01 11:51:43;;;;;;;4.40;1.97;;;;;;;;;;2610583;54;21279;-72
2023/09/01 11:54:09;;;;;;;5.47;2.20;;;;;;;;;;2611910;54;20400;-73
2023/09/01 11:56:36;;;;;;;3.13;1.50;;;;;;;;;;2611300;54;20431;-72
2023/09/01 11:59:02;;;;;;;4.00;1.90;;;;;;;;;;2612304;54;20436;-73
2023/09/01 12:01:32;;;;;;;3.23;2.03;;;;;;;;;;2611841;54;20491;-72
2023/09/01 12:04:08;;;;;;;3.77;2.00;;;;;;;;;;2612503;54;20458;-72
2023/09/01 12:06:39;;;;;;;3.37;2.00;;;;;;;;;;2611837;54;21127;-73
2023/09/01 12:09:15;;;;;;;4.33;2.40;;;;;;;;;;2611174;54;20418;-73
2023/09/01 12:11:53;;;;;;;2.53;1.73;;;;;;;;;;2611942;54;20441;-72
2023/09/01 12:14:20;;;;;;;4.80;2.03;;;;;;;;;;2612730;54;20447;-73
2023/09/01 12:16:52;;;;;;;2.77;1.60;;;;;;;;;;2612697;54;20765;-75
2023/09/01 12:19:18;;;;;;;5.03;2.50;;;;;;;;;;2613826;39;20834;-75
2023/09/01 12:21:44;;;;;;;3.00;1.83;;;;;;;;;;2610777;54;20430;-74
2023/09/01 12:24:10;;;;;;;3.13;1.80;;;;;;;;;;2611890;54;20424;-72
2023/09/01 12:26:37;;;;;;;3.23;1.70;;;;;;;;;;2611695;54;20423;-70
2023/09/01 12:29:03;;;;;;;2.90;1.80;;;;;;;;;;2609811;46;20423;-71
2023/09/01 12:31:29;;;;;;;2.30;1.63;;;;;;;;;;2610423;54;20408;-71
2023/09/01 12:33:55;;;;;;;2.97;1.70;;;;;;;;;;2611901;54;20440;-71
2023/09/01 12:36:21;;;;;;;9.60;2.20;;;;;;;;;;2610556;39;20775;-72
2023/09/01 12:38:47;;;;;;;2.77;2.37;;;;;;;;;;2612496;54;20893;-73
2023/09/01 12:41:13;;;;;;;2.50;1.97;;;;;;;;;;2610848;54;20443;-72
2023/09/01 12:43:39;;;;;;;3.40;2.77;;;;;;;;;;2612009;54;21286;-73
2023/09/01 12:46:05;;;;;;;4.27;2.50;;;;;;;;;;2612546;46;20470;-73
2023/09/01 12:48:32;;;;;;;3.97;2.70;;;;;;;;;;2611754;54;20403;-74
2023/09/01 12:50:58;;;;;;;2.80;2.50;;;;;;;;;;2612362;54;20416;-72
2023/09/01 12:53:24;;;;;;;3.30;2.87;;;;;;;;;;2610832;39;20555;-71
2023/09/01 12:55:50;;;;;;;3.40;2.33;;;;;;;;;;2611651;54;20966;-72
2023/09/01 12:58:16;;;;;;;5.43;2.50;;;;;;;;;;2609893;54;20422;-72
2023/09/01 13:00:45;;;;;;;4.13;2.20;;;;;;;;;;2609232;47;20427;-71
2023/09/01 13:03:11;;;;;;;3.90;2.40;;;;;;;;;;2611655;54;20396;-73
2023/09/01 13:05:38;;;;;;;3.87;2.63;;;;;;;;;;2612044;54;20384;-72
2023/09/01 13:08:04;;;;;;;3.83;2.40;;;;;;;;;;2611764;47;20495;-72
2023/09/01 13:10:30;;;;;;;3.93;2.40;;;;;;;;;;2611651;54;20463;-72
2023/09/01 13:12:56;;;;;;;3.00;2.53;;;;;;;;;;2611506;39;20814;-72
2023/09/01 13:15:22;;;;;;;2.63;2.20;;;;;;;;;;2611681;54;20515;-72
2023/09/01 13:17:48;;;;;;;3.60;1.87;;;;;;;;;;2610897;54;20403;-72
2023/09/01 13:20:15;;;;;;;3.97;2.47;;;;;;;;;;2611537;54;20495;-71
2023/09/01 13:22:41;;;;;;;5.00;2.80;;;;;;;;;;2611795;54;20993;-72
2023/09/01 13:25:08;;;;;;;2.77;2.50;;;;;;;;;;2611713;54;20435;-70
2023/09/01 13:27:34;;;;;;;4.43;3.10;;;;;;;;;;2612342;46;20443;-70
2023/09/01 13:30:00;;;;;;;5.00;2.50;;;;;;;;;;2611930;54;20380;-73
2023/09/01 13:32:27;;;;;;;3.37;2.30;;;;;;;;;;2612535;39;20914;-73
2023/09/01 13:34:53;;;;;;;3.00;2.50;;;;;;;;;;2612536;39;20768;-72
2023/09/01 13:37:20;;;;;;;3.93;3.00;;;;;;;;;;2612048;54;20550;-72
2023/09/01 13:39:53;;;;;;;5.80;3.27;;;;;;;;;;2612065;54;21159;-73
2023/09/01 13:42:19;;;;;;;3.30;3.00;;;;;;;;;;2611739;39;21018;-73
2023/09/01 13:44:45;;;;;;;2.80;2.20;;;;;;;;;;2611612;54;21014;-72
2023/09/01 13:47:11;;;;;;;3.20;2.90;;;;;;;;;;2611857;54;20407;-73
2023/09/01 13:49:37;;;;;;;2.87;2.17;;;;;;;;;;2612622;54;20442;-73
2023/09/01 13:52:03;;;;;;;2.70;2.40;;;;;;;;;;2612593;39;21005;-73
2023/09/01 13:54:30;;;;;;;3.53;2.70;;;;;;;;;;2611569;54;21543;-72
2023/09/01 13:56:56;;;;;;;3.80;2.70;;;;;;;;;;2611911;54;20411;-73
2023/09/01 13:59:22;;;;;;;3.10;2.80;;;;;;;;;;2611813;54;20491;-73
2023/09/01 14:01:51;;;;;;;4.53;2.37;;;;;;;;;;2611350;54;20418;-73
2023/09/01 14:04:17;;;;;;;3.53;3.00;;;;;;;;;;2611901;54;21000;-72
2023/09/01 14:06:43;;;;;;;4.33;2.33;;;;;;;;;;2612011;54;20407;-73
2023/09/01 14:09:09;;;;;;;4.10;2.30;;;;;;;;;;2611857;54;20414;-74
2023/09/01 14:11:35;;;;;;;2.90;2.20;;;;;;;;;;2611711;54;20428;-72
2023/09/01 14:14:02;;;;;;;2.70;2.23;;;;;;;;;;2611784;54;20419;-72
2023/09/01 14:16:28;;;;;;;3.90;2.40;;;;;;;;;;2610838;54;20390;-73
2023/09/01 14:18:54;;;;;;;2.50;1.97;;;;;;;;;;2611755;54;20419;-73
2023/09/01 14:21:20;;;;;;;2.97;2.43;;;;;;;;;;2611224;54;20395;-73
2023/09/01 14:23:46;;;;;;;2.90;2.30;;;;;;;;;;2611916;54;20395;-73
2023/09/01 14:26:12;;;;;;;3.07;2.77;;;;;;;;;;2613612;54;20388;-73
2023/09/01 14:28:38;;;;;;;2.90;2.60;;;;;;;;;;2612789;54;20396;-72
2023/09/01 14:31:05;;;;;;;3.33;2.50;;;;;;;;;;2612309;54;20427;-73
2023/09/01 14:33:31;;;;;;;4.70;4.07;;;;;;;;;;2611912;54;20404;-73
2023/09/01 14:35:57;;;;;;;5.43;4.93;;;;;;;;;;2612384;54;20455;-74
2023/09/01 14:38:25;;;;;;;4.97;4.53;;;;;;;;;;2612940;54;20730;-73